Time,TemperatureF,DewpointF,PressureIn,WindDirection,WindDirectionDegrees,WindSpeedMPH,WindSpeedGustMPH,Humidity,HourlyPrecipIn,Conditions,Clouds,dailyrainin,SolarRadiationWatts/m^2,SoftwareType,DateUTC
2013-11-21 00:03:00,21.0,14.0,-100.00,NW,308,1.0,4.0,75,0.00,,,0.00,0.000000,,2013-11-21 05:03:00,
2013-11-21 00:43:00,20.0,14.0,-100.00,SW,236,1.0,3.0,76,0.00,,,0.00,0.000000,,2013-11-21 05:43:00,
2013-11-21 00:53:00,20.0,14.0,-100.00,SW,236,1.0,3.0,76,0.00,,,0.00,0.000000,,2013-11-21 05:53:00,
2013-11-21 01:03:00,20.0,14.0,-100.00,SW,236,1.0,3.0,76,0.00,,,0.00,0.000000,,2013-11-21 06:03:00,
2013-11-21 01:43:00,20.0,14.0,-100.00,West,259,1.0,4.0,76,0.00,,,0.00,0.000000,,2013-11-21 06:43:00,
2013-11-21 01:52:00,20.0,14.0,-100.00,West,259,1.0,4.0,76,0.00,,,0.00,0.000000,,2013-11-21 06:52:00,
2013-11-21 02:02:00,20.0,14.0,-100.00,West,259,1.0,4.0,76,0.00,,,0.00,0.000000,,2013-11-21 07:02:00,
2013-11-21 02:43:00,19.0,13.0,-100.00,West,263,1.0,3.0,77,0.00,,,0.00,0.000000,,2013-11-21 07:43:00,
2013-11-21 02:52:00,19.0,13.0,-100.00,West,263,1.0,3.0,77,0.00,,,0.00,0.000000,,2013-11-21 07:52:00,
2013-11-21 03:02:00,19.0,13.0,-100.00,West,263,1.0,3.0,77,0.00,,,0.00,0.000000,,2013-11-21 08:02:00,
2013-11-21 03:42:00,19.0,13.0,-100.00,WSW,237,2.0,3.0,78,0.00,,,0.00,0.000000,,2013-11-21 08:42:00,
2013-11-21 03:52:00,19.0,13.0,-100.00,WSW,237,2.0,3.0,78,0.00,,,0.00,0.000000,,2013-11-21 08:52:00,
2013-11-21 04:02:00,19.0,13.0,-100.00,WSW,237,2.0,3.0,78,0.00,,,0.00,0.000000,,2013-11-21 09:02:00,
2013-11-21 04:43:00,18.0,13.0,-100.00,West,273,0.0,2.0,80,0.00,,,0.00,0.000000,,2013-11-21 09:43:00,
2013-11-21 04:53:00,18.0,13.0,-100.00,West,273,0.0,2.0,80,0.00,,,0.00,0.000000,,2013-11-21 09:53:00,
2013-11-21 05:03:00,18.0,13.0,-100.00,West,273,0.0,2.0,80,0.00,,,0.00,0.000000,,2013-11-21 10:03:00,
2013-11-21 05:42:00,18.0,13.0,-100.00,WNW,283,0.0,0.0,81,0.00,,,0.00,0.000000,,2013-11-21 10:42:00,
2013-11-21 05:53:00,18.0,13.0,-100.00,WNW,283,0.0,0.0,81,0.00,,,0.00,0.000000,,2013-11-21 10:53:00,
2013-11-21 06:03:00,18.0,13.0,-100.00,WNW,283,0.0,0.0,81,0.00,,,0.00,0.000000,,2013-11-21 11:03:00,
2013-11-21 06:43:00,17.0,13.0,-100.00,NW,323,0.0,2.0,84,0.00,,,0.00,0.000000,,2013-11-21 11:43:00,
2013-11-21 06:53:00,17.0,13.0,-100.00,NW,323,0.0,2.0,84,0.00,,,0.00,0.000000,,2013-11-21 11:53:00,
2013-11-21 07:02:00,17.0,13.0,-100.00,NW,323,0.0,2.0,84,0.00,,,0.00,0.000000,,2013-11-21 12:02:00,
2013-11-21 07:42:00,16.0,12.0,-100.00,NW,309,0.0,0.0,83,0.00,,,0.00,1.000000,,2013-11-21 12:42:00,
2013-11-21 07:52:00,16.0,12.0,-100.00,NW,309,0.0,0.0,83,0.00,,,0.00,1.000000,,2013-11-21 12:52:00,
2013-11-21 08:01:00,16.0,12.0,-100.00,NW,309,0.0,0.0,83,0.00,,,0.00,1.000000,,2013-11-21 13:01:00,
2013-11-21 08:42:00,18.0,14.0,-100.00,SW,224,1.0,2.0,83,0.00,,,0.00,15.000000,,2013-11-21 13:42:00,
2013-11-21 08:52:00,18.0,14.0,-100.00,SW,224,1.0,2.0,83,0.00,,,0.00,15.000000,,2013-11-21 13:52:00,
2013-11-21 09:02:00,18.0,14.0,-100.00,SW,224,1.0,2.0,83,0.00,,,0.00,15.000000,,2013-11-21 14:02:00,
2013-11-21 09:42:00,27.0,13.0,-100.00,SSW,211,2.0,4.0,56,0.00,,,0.00,25.000000,,2013-11-21 14:42:00,
2013-11-21 09:52:00,27.0,13.0,-100.00,SSW,211,2.0,4.0,56,0.00,,,0.00,25.000000,,2013-11-21 14:52:00,
2013-11-21 10:02:00,27.0,13.0,-100.00,SSW,211,2.0,4.0,56,0.00,,,0.00,25.000000,,2013-11-21 15:02:00,
2013-11-21 10:44:00,37.0,13.0,-100.00,SSW,210,2.0,4.0,36,0.00,,,0.00,194.000000,,2013-11-21 15:44:00,
2013-11-21 10:53:00,37.0,13.0,-100.00,SSW,210,2.0,4.0,36,0.00,,,0.00,194.000000,,2013-11-21 15:53:00,
2013-11-21 11:03:00,37.0,13.0,-100.00,SSW,210,2.0,4.0,36,0.00,,,0.00,194.000000,,2013-11-21 16:03:00,
2013-11-21 11:42:00,42.0,15.0,-100.00,SW,227,4.0,7.0,33,0.00,,,0.00,389.000000,,2013-11-21 16:42:00,
2013-11-21 11:53:00,42.0,15.0,-100.00,SW,227,4.0,7.0,33,0.00,,,0.00,389.000000,,2013-11-21 16:53:00,
2013-11-21 12:03:00,42.0,15.0,-100.00,SW,227,4.0,7.0,33,0.00,,,0.00,389.000000,,2013-11-21 17:03:00,
2013-11-21 12:42:00,46.0,11.0,-100.00,SSW,197,4.0,9.0,24,0.00,,,0.00,383.000000,,2013-11-21 17:42:00,
2013-11-21 12:52:00,46.0,11.0,-100.00,SSW,197,4.0,9.0,24,0.00,,,0.00,383.000000,,2013-11-21 17:52:00,
2013-11-21 13:02:00,46.0,11.0,-100.00,SSW,197,4.0,9.0,24,0.00,,,0.00,383.000000,,2013-11-21 18:02:00,
2013-11-21 14:42:00,45.0,5.0,-100.00,SSW,199,3.0,8.0,19,0.00,,,0.00,176.000000,,2013-11-21 19:42:00,
2013-11-21 14:52:00,45.0,5.0,-100.00,SSW,199,3.0,8.0,19,0.00,,,0.00,176.000000,,2013-11-21 19:52:00,
2013-11-21 15:02:00,45.0,5.0,-100.00,SSW,199,3.0,8.0,19,0.00,,,0.00,176.000000,,2013-11-21 20:02:00,
2013-11-21 15:42:00,43.0,9.0,-100.00,SW,231,4.0,11.0,24,0.00,,,0.00,93.000000,,2013-11-21 20:42:00,
2013-11-21 15:52:00,43.0,9.0,-100.00,SW,231,4.0,11.0,24,0.00,,,0.00,93.000000,,2013-11-21 20:52:00,
2013-11-21 16:02:00,43.0,9.0,-100.00,SW,231,4.0,11.0,24,0.00,,,0.00,93.000000,,2013-11-21 21:02:00,
2013-11-21 16:43:00,41.0,7.0,-100.00,WSW,237,7.0,13.0,24,0.00,,,0.00,24.000000,,2013-11-21 21:43:00,
2013-11-21 16:54:00,41.0,7.0,-100.00,WSW,237,7.0,13.0,24,0.00,,,0.00,24.000000,,2013-11-21 21:54:00,
2013-11-21 17:03:00,41.0,7.0,-100.00,WSW,237,7.0,13.0,24,0.00,,,0.00,24.000000,,2013-11-21 22:03:00,
2013-11-21 17:43:00,35.0,11.0,-100.00,WNW,303,1.0,10.0,36,0.00,,,0.00,1.000000,,2013-11-21 22:43:00,
2013-11-21 17:53:00,35.0,11.0,-100.00,WNW,303,1.0,10.0,36,0.00,,,0.00,1.000000,,2013-11-21 22:53:00,
2013-11-21 18:03:00,35.0,11.0,-100.00,WNW,303,1.0,10.0,36,0.00,,,0.00,1.000000,,2013-11-21 23:03:00,
2013-11-21 18:42:00,39.0,10.0,-100.00,SW,233,4.0,11.0,30,0.00,,,0.00,0.000000,,2013-11-21 23:42:00,
2013-11-21 18:53:00,39.0,10.0,-100.00,SW,233,4.0,11.0,30,0.00,,,0.00,0.000000,,2013-11-21 23:53:00,
2013-11-21 19:02:00,39.0,10.0,-100.00,SW,233,4.0,11.0,30,0.00,,,0.00,0.000000,,2013-11-22 00:02:00,
2013-11-21 19:42:00,35.0,18.0,-100.00,SW,232,3.0,7.0,50,0.00,,,0.00,0.000000,,2013-11-22 00:42:00,
2013-11-21 19:52:00,35.0,18.0,-100.00,SW,232,3.0,7.0,50,0.00,,,0.00,0.000000,,2013-11-22 00:52:00,
2013-11-21 20:01:00,35.0,18.0,-100.00,SW,232,3.0,7.0,50,0.00,,,0.00,0.000000,,2013-11-22 01:01:00,
2013-11-21 20:42:00,30.0,17.0,-100.00,WSW,249,2.0,7.0,58,0.00,,,0.00,0.000000,,2013-11-22 01:42:00,
2013-11-21 20:52:00,30.0,17.0,-100.00,WSW,249,2.0,7.0,58,0.00,,,0.00,0.000000,,2013-11-22 01:52:00,
2013-11-21 21:02:00,30.0,17.0,-100.00,WSW,249,2.0,7.0,58,0.00,,,0.00,0.000000,,2013-11-22 02:02:00,
2013-11-21 21:42:00,27.0,16.0,-100.00,ENE,70,1.0,4.0,63,0.00,,,0.00,0.000000,,2013-11-22 02:42:00,
2013-11-21 21:53:00,27.0,16.0,-100.00,ENE,70,1.0,4.0,63,0.00,,,0.00,0.000000,,2013-11-22 02:53:00,
2013-11-21 22:02:00,27.0,16.0,-100.00,ENE,70,1.0,4.0,63,0.00,,,0.00,0.000000,,2013-11-22 03:02:00,
2013-11-21 22:43:00,29.0,18.0,-100.00,WSW,257,2.0,5.0,63,0.00,,,0.00,0.000000,,2013-11-22 03:43:00,
2013-11-21 22:54:00,29.0,18.0,-100.00,WSW,257,2.0,5.0,63,0.00,,,0.00,0.000000,,2013-11-22 03:54:00,
2013-11-21 23:03:00,29.0,18.0,-100.00,WSW,257,2.0,5.0,63,0.00,,,0.00,0.000000,,2013-11-22 04:03:00,
2013-11-21 23:43:00,28.0,18.0,-100.00,WNW,302,1.0,4.0,67,0.00,,,0.00,0.000000,,2013-11-22 04:43:00,
2013-11-21 23:53:00,28.0,18.0,-100.00,WNW,302,1.0,4.0,67,0.00,,,0.00,0.000000,,2013-11-22 04:53:00,